createdAt,value
2017-11-06T06:07:45.627Z,5.60
2017-11-06T06:10:13.999Z,5.60
2017-11-06T06:12:42.358Z,5.60
2017-11-06T06:15:10.723Z,5.70
2017-11-06T06:17:39.353Z,5.70
2017-11-06T06:20:07.971Z,5.60
2017-11-06T06:22:36.352Z,5.70
2017-11-06T06:25:04.375Z,5.60
2017-11-06T06:27:32.732Z,5.70
2017-11-06T06:30:01.234Z,5.70
2017-11-06T06:32:29.606Z,5.80
2017-11-06T06:34:57.982Z,5.90
2017-11-06T06:37:26.335Z,5.90
2017-11-06T06:39:55.657Z,5.90
2017-11-06T06:42:24.025Z,5.90
2017-11-06T06:44:52.416Z,5.90
2017-11-06T06:47:20.787Z,6.00
2017-11-06T06:49:49.416Z,5.90
2017-11-06T06:52:17.785Z,6.00
2017-11-06T06:54:46.231Z,6.10
2017-11-06T06:57:14.597Z,5.90
2017-11-06T06:59:42.876Z,6.00
2017-11-06T07:02:11.270Z,6.10
2017-11-06T07:04:39.643Z,6.10
2017-11-06T07:07:08.016Z,6.10
2017-11-06T07:09:36.389Z,6.00
2017-11-06T07:12:04.789Z,6.10
2017-11-06T07:14:32.823Z,6.00
2017-11-06T07:17:01.196Z,6.10
2017-11-06T07:19:29.575Z,6.10
2017-11-06T07:21:57.944Z,6.00
2017-11-06T07:24:26.308Z,6.00
2017-11-06T07:26:54.678Z,6.00
2017-11-06T07:29:23.067Z,6.10
2017-11-06T07:31:51.436Z,6.20
2017-11-06T07:34:19.925Z,6.30
2017-11-06T07:36:48.283Z,6.40
2017-11-06T07:39:16.679Z,6.50
2017-11-06T07:41:45.044Z,6.40
2017-11-06T07:44:13.446Z,6.50
2017-11-06T07:46:42.060Z,6.40
2017-11-06T07:49:10.447Z,6.40
2017-11-06T07:51:39.594Z,6.30
2017-11-06T07:54:07.977Z,6.30
2017-11-06T07:56:36.353Z,6.40
2017-11-06T07:59:05.377Z,6.40
2017-11-06T08:01:33.744Z,6.50
2017-11-06T08:04:02.137Z,6.70
2017-11-06T08:06:30.496Z,6.80
2017-11-06T08:08:58.852Z,6.80
2017-11-06T08:11:27.639Z,7.00
2017-11-06T08:13:56.515Z,7.00
2017-11-06T08:16:24.872Z,7.10
2017-11-06T08:18:53.447Z,7.20
2017-11-06T08:21:21.803Z,7.20
2017-11-06T08:23:50.940Z,7.30
2017-11-06T08:26:19.651Z,7.30
2017-11-06T08:28:48.192Z,7.30
2017-11-06T08:31:16.872Z,7.30
2017-11-06T08:33:45.557Z,7.30
2017-11-06T08:36:13.915Z,7.30
2017-11-06T08:38:42.277Z,7.30
2017-11-06T08:41:11.402Z,7.50
2017-11-06T08:43:39.801Z,7.50
2017-11-06T08:46:08.163Z,7.60
2017-11-06T08:48:36.678Z,7.70
2017-11-06T08:51:05.053Z,7.60
2017-11-06T08:53:33.666Z,7.60
2017-11-06T08:56:02.169Z,7.60
2017-11-06T08:58:30.542Z,7.50
2017-11-06T09:00:58.901Z,7.50
2017-11-06T09:03:27.271Z,7.60
2017-11-06T09:05:55.654Z,7.60
2017-11-06T09:08:24.775Z,7.70
2017-11-06T09:10:53.155Z,7.70
2017-11-06T09:13:21.541Z,7.70
2017-11-06T09:15:49.896Z,7.70
2017-11-06T09:18:18.575Z,7.60
2017-11-06T09:20:46.936Z,7.50
2017-11-06T09:23:15.308Z,7.40
2017-11-06T09:25:43.662Z,7.30
2017-11-06T09:28:12.788Z,7.20
2017-11-06T09:30:41.172Z,7.20
2017-11-06T09:33:09.933Z,7.30
2017-11-06T09:35:38.296Z,7.30
2017-11-06T09:38:07.429Z,7.30
2017-11-06T09:40:35.807Z,7.20
2017-11-06T09:43:04.179Z,7.20
2017-11-06T09:45:32.558Z,7.30
2017-11-06T09:48:01.134Z,7.30
2017-11-06T09:50:29.504Z,7.30
2017-11-06T09:52:57.877Z,7.40
2017-11-06T09:55:26.252Z,7.40
2017-11-06T09:57:55.253Z,7.40
2017-11-06T10:00:23.625Z,7.50
2017-11-06T10:02:51.983Z,7.50
2017-11-06T10:05:21.105Z,7.50
2017-11-06T10:07:49.479Z,7.50
2017-11-06T10:10:17.855Z,7.50
2017-11-06T10:12:46.242Z,7.50
2017-11-06T10:15:14.606Z,7.60
2017-11-06T10:17:42.997Z,7.60
2017-11-06T10:20:11.360Z,7.70
2017-11-06T10:22:39.730Z,7.80
2017-11-06T10:25:08.093Z,7.80
2017-11-06T10:27:36.467Z,7.90
2017-11-06T10:30:04.840Z,7.90
2017-11-06T10:32:33.216Z,8.00
2017-11-06T10:35:01.609Z,8.00
2017-11-06T10:37:29.659Z,8.10
2017-11-06T10:39:57.642Z,8.20
2017-11-06T10:42:25.708Z,8.20
2017-11-06T10:44:53.736Z,8.20
2017-11-06T10:47:23.089Z,8.30
2017-11-06T10:49:51.683Z,8.30
2017-11-06T10:52:20.047Z,8.40
2017-11-06T10:54:48.416Z,8.40
2017-11-06T10:57:16.791Z,8.50
2017-11-06T10:59:45.154Z,8.60
2017-11-06T11:02:13.548Z,8.70
2017-11-06T11:04:41.724Z,8.70
2017-11-06T11:07:10.090Z,8.80
2017-11-06T11:09:38.119Z,8.90
2017-11-06T11:12:07.268Z,9.10
2017-11-06T11:14:35.627Z,9.00
2017-11-06T11:17:03.642Z,9.10
2017-11-06T11:19:31.999Z,9.20
2017-11-06T11:22:00.354Z,9.40
2017-11-06T11:24:30.250Z,9.40
2017-11-06T11:26:58.607Z,9.50
2017-11-06T11:29:26.963Z,9.50
2017-11-06T11:31:56.099Z,9.70
2017-11-06T11:34:24.476Z,9.70
2017-11-06T11:36:52.832Z,9.70
2017-11-06T11:39:21.186Z,9.90
2017-11-06T11:41:48.859Z,10.00
2017-11-06T11:44:17.993Z,10.20
2017-11-06T11:46:46.367Z,10.20
2017-11-06T11:49:14.934Z,10.30
2017-11-06T11:51:43.283Z,10.30
2017-11-06T11:54:11.656Z,10.30
2017-11-06T11:56:41.495Z,10.30
2017-11-06T11:59:10.444Z,10.20
2017-11-06T12:01:38.810Z,10.20
2017-11-06T12:04:07.187Z,10.20
2017-11-06T12:06:35.544Z,10.00
2017-11-06T12:09:03.372Z,10.00
2017-11-06T12:11:32.324Z,10.00
2017-11-06T12:14:00.895Z,9.90
2017-11-06T12:16:29.328Z,9.90
2017-11-06T12:18:57.747Z,10.00
2017-11-06T12:21:26.136Z,10.20
2017-11-06T12:23:54.547Z,10.50
2017-11-06T12:26:22.903Z,10.90
2017-11-06T12:28:51.297Z,11.10
2017-11-06T12:31:19.662Z,11.40
2017-11-06T12:33:48.028Z,11.50
2017-11-06T12:36:16.384Z,11.40
2017-11-06T12:38:44.744Z,11.40
2017-11-06T12:41:13.179Z,11.30
2017-11-06T12:43:41.536Z,11.20
2017-11-06T12:46:09.903Z,11.10
2017-11-06T12:48:39.044Z,10.80
2017-11-06T12:51:08.527Z,10.70
2017-11-06T12:53:37.089Z,10.70
2017-11-06T12:56:05.585Z,10.70
2017-11-06T12:58:33.940Z,10.60
2017-11-06T13:01:02.337Z,10.70
2017-11-06T13:03:30.700Z,10.80
2017-11-06T13:05:59.075Z,10.90
2017-11-06T13:08:27.447Z,10.90
2017-11-06T13:10:55.807Z,11.00
2017-11-06T13:13:24.949Z,11.00
2017-11-06T13:15:53.324Z,11.00
2017-11-06T13:18:21.701Z,11.10
2017-11-06T13:20:50.332Z,11.20
2017-11-06T13:23:18.708Z,11.20
2017-11-06T13:25:47.067Z,11.20
2017-11-06T13:28:15.477Z,11.30
2017-11-06T13:30:43.836Z,11.40
2017-11-06T13:33:12.207Z,11.60
2017-11-06T13:35:39.901Z,11.70
2017-11-06T13:38:08.525Z,11.70
2017-11-06T13:40:36.548Z,11.70
2017-11-06T13:43:04.907Z,11.70
2017-11-06T13:45:33.305Z,11.60
2017-11-06T13:48:01.670Z,11.50
2017-11-06T13:50:30.050Z,11.50
2017-11-06T13:52:58.403Z,11.40
2017-11-06T13:55:26.764Z,11.40
2017-11-06T13:58:53.758Z,11.50
2017-11-06T14:01:22.197Z,11.50
2017-11-06T14:03:50.580Z,11.60
2017-11-06T14:19:13.979Z,11.70
2017-11-06T14:21:42.598Z,11.50
2017-11-06T14:24:10.963Z,11.40
2017-11-06T14:26:39.388Z,11.40
2017-11-06T14:29:07.855Z,11.40
2017-11-06T14:31:36.479Z,11.40
2017-11-06T14:34:04.851Z,11.30
2017-11-06T14:36:33.230Z,11.20
2017-11-06T14:39:01.873Z,11.20
2017-11-06T14:41:30.255Z,11.10
2017-11-06T14:43:58.729Z,10.90
2017-11-06T14:46:27.104Z,10.90
2017-11-06T14:48:55.557Z,10.90
2017-11-06T14:51:23.925Z,10.80
2017-11-06T14:53:52.286Z,10.80
2017-11-06T14:56:20.662Z,10.80
2017-11-06T14:58:49.838Z,10.70
2017-11-06T15:01:17.519Z,10.70
2017-11-06T15:03:45.889Z,10.60
2017-11-06T15:06:14.418Z,10.60
2017-11-06T15:08:42.801Z,10.50
2017-11-06T15:11:11.179Z,10.40
2017-11-06T15:13:38.926Z,10.40
2017-11-06T15:16:06.693Z,10.30
2017-11-06T15:18:34.365Z,10.30
2017-11-06T15:21:02.041Z,10.20
2017-11-06T15:23:29.728Z,10.10
2017-11-06T15:25:58.098Z,10.00
2017-11-06T15:28:26.459Z,10.00
2017-11-06T15:30:54.828Z,9.90
2017-11-06T15:33:23.212Z,9.90
2017-11-06T15:35:51.572Z,9.80
2017-11-06T15:38:20.085Z,9.70
2017-11-06T15:40:49.220Z,9.60
2017-11-06T15:43:17.597Z,9.60
2017-11-06T15:45:45.962Z,9.60
2017-11-06T15:48:14.327Z,9.50
2017-11-06T15:50:42.807Z,9.30
2017-11-06T15:53:11.180Z,9.30
2017-11-06T15:55:39.630Z,9.30
2017-11-06T15:58:07.988Z,9.20
2017-11-06T16:00:36.344Z,9.10
2017-11-06T16:03:04.913Z,9.00
2017-11-06T16:05:33.277Z,8.90
2017-11-06T16:08:01.663Z,8.90
2017-11-06T16:10:30.018Z,8.80
2017-11-06T16:12:59.338Z,8.70
2017-11-06T16:15:27.817Z,8.70
2017-11-06T16:17:56.399Z,8.60
2017-11-06T16:20:24.778Z,8.60
2017-11-06T16:22:53.150Z,8.60
2017-11-06T16:25:21.526Z,8.50
2017-11-06T16:27:49.922Z,8.50
2017-11-06T16:30:18.283Z,8.40
2017-11-06T16:32:46.968Z,8.40
2017-11-06T16:35:15.336Z,8.40
2017-11-06T16:37:43.711Z,8.30
2017-11-06T16:40:12.163Z,8.30
2017-11-06T16:42:40.545Z,8.30
2017-11-06T16:45:08.900Z,8.20
2017-11-06T16:47:37.314Z,8.20
2017-11-06T16:50:05.691Z,8.20
2017-11-06T16:52:34.078Z,8.20
2017-11-06T16:55:04.254Z,8.20
2017-11-06T16:57:33.416Z,8.20
2017-11-06T17:00:01.928Z,8.20
2017-11-06T17:02:31.071Z,8.20
2017-11-06T17:04:59.436Z,8.20
2017-11-06T17:07:28.008Z,8.20
2017-11-06T17:09:56.448Z,8.20
2017-11-06T17:12:24.825Z,8.10
2017-11-06T17:14:53.444Z,8.20
2017-11-06T17:17:22.089Z,8.10
2017-11-06T17:19:50.456Z,8.10
2017-11-06T17:22:18.826Z,8.10
2017-11-06T17:24:47.187Z,8.10
2017-11-06T17:27:15.558Z,8.10
2017-11-06T17:29:43.964Z,8.10
2017-11-06T17:32:12.321Z,8.10
2017-11-06T17:34:40.703Z,8.10
2017-11-06T17:37:09.102Z,8.20
2017-11-06T17:39:37.284Z,8.20
2017-11-06T17:42:05.664Z,8.20
2017-11-06T17:44:34.033Z,8.20
2017-11-06T17:47:02.397Z,8.20
2017-11-06T17:49:30.792Z,8.20
2017-11-06T17:51:59.202Z,8.20
2017-11-06T17:54:27.587Z,8.10
2017-11-06T17:56:56.090Z,8.10
2017-11-06T17:59:24.449Z,8.10
2017-11-06T18:01:53.101Z,8.00
2017-11-06T18:04:21.548Z,7.90
2017-11-06T18:06:49.933Z,7.80
2017-11-06T18:09:18.371Z,7.70
2017-11-06T18:11:47.009Z,7.60
2017-11-06T18:14:15.590Z,7.60
2017-11-06T18:16:43.958Z,7.60
2017-11-06T18:19:12.335Z,7.50
2017-11-06T18:21:40.697Z,7.50
2017-11-06T18:24:09.382Z,7.40
2017-11-06T18:26:38.537Z,7.40
2017-11-06T18:29:08.551Z,7.30
2017-11-06T18:31:36.919Z,7.30
2017-11-06T18:34:05.281Z,7.30
2017-11-06T18:36:33.649Z,7.30
2017-11-06T18:39:02.044Z,7.30
2017-11-06T18:41:30.493Z,7.30
2017-11-06T18:43:59.174Z,7.30
2017-11-06T18:46:27.531Z,7.30
2017-11-06T18:48:55.911Z,7.20
2017-11-06T18:51:24.290Z,7.20
2017-11-06T18:53:52.955Z,7.20
2017-11-06T18:56:21.341Z,7.20
2017-11-06T18:58:49.721Z,7.20
2017-11-06T19:01:18.120Z,7.20
2017-11-06T19:03:46.502Z,7.20
2017-11-06T19:06:14.896Z,7.10
2017-11-06T19:08:43.293Z,7.10
2017-11-06T19:11:12.468Z,7.10
2017-11-06T19:13:40.656Z,7.00
2017-11-06T19:16:10.218Z,7.00
2017-11-06T19:18:38.600Z,7.00
2017-11-06T19:21:06.974Z,7.00
2017-11-06T19:23:35.379Z,7.00
2017-11-06T19:26:03.966Z,6.90
2017-11-06T19:28:33.144Z,6.90
2017-11-06T19:31:01.763Z,6.90
2017-11-06T19:33:30.214Z,6.90
2017-11-06T19:35:58.764Z,6.90
2017-11-06T19:38:27.145Z,6.80
2017-11-06T19:40:55.552Z,6.80
2017-11-06T19:43:23.912Z,6.80
2017-11-06T19:45:52.300Z,6.80
2017-11-06T19:48:20.688Z,6.70
2017-11-06T19:50:48.748Z,6.70
2017-11-06T19:53:17.117Z,6.70
2017-11-06T19:55:45.583Z,6.70
2017-11-06T19:58:14.177Z,6.70
2017-11-06T20:00:42.577Z,6.60
2017-11-06T20:03:10.967Z,6.50
2017-11-06T20:05:39.340Z,6.50
2017-11-06T20:08:07.729Z,6.40
2017-11-06T20:10:36.336Z,6.40
2017-11-06T20:13:04.959Z,6.40
2017-11-06T20:15:33.368Z,6.50
2017-11-06T20:18:02.682Z,6.40
2017-11-06T20:20:31.113Z,6.40
2017-11-06T20:23:00.256Z,6.40
2017-11-06T20:25:28.641Z,6.30
2017-11-06T20:27:57.018Z,6.30
2017-11-06T20:30:25.455Z,6.20
2017-11-06T20:32:54.434Z,6.20
2017-11-06T20:35:22.484Z,6.20
2017-11-06T20:37:50.891Z,6.20
2017-11-06T20:40:20.096Z,6.20
2017-11-06T20:42:48.463Z,6.20
2017-11-06T20:45:16.183Z,6.20
2017-11-06T20:47:43.875Z,6.20
2017-11-06T20:50:12.320Z,6.20
2017-11-06T20:52:40.559Z,6.20
2017-11-06T20:55:09.035Z,6.10
2017-11-06T20:57:37.440Z,6.20
2017-11-06T21:00:05.877Z,6.20
2017-11-06T21:02:34.280Z,6.20
2017-11-06T21:05:02.660Z,6.20
2017-11-06T21:07:31.071Z,6.10
2017-11-06T21:10:00.631Z,6.00
2017-11-06T21:12:29.060Z,6.00
2017-11-06T21:14:57.441Z,6.10
2017-11-06T21:17:25.823Z,6.10
2017-11-06T21:19:54.477Z,6.10
2017-11-06T21:22:23.113Z,6.10
2017-11-06T21:24:51.509Z,6.10
2017-11-06T21:27:19.886Z,6.00
2017-11-06T21:29:53.638Z,5.90
2017-11-06T21:32:22.046Z,5.90
2017-11-06T21:34:50.413Z,5.90
2017-11-06T21:37:18.849Z,5.90
2017-11-06T21:39:47.495Z,5.80
2017-11-06T21:42:16.105Z,5.80
2017-11-06T21:44:44.504Z,5.80
2017-11-06T21:47:12.890Z,5.70
2017-11-06T21:49:41.281Z,5.70
2017-11-06T21:52:09.667Z,5.60
2017-11-06T21:54:38.029Z,5.60
2017-11-06T21:57:06.403Z,5.70
2017-11-06T21:59:34.779Z,5.70
2017-11-06T22:02:03.182Z,5.70
2017-11-06T22:04:31.564Z,5.70
2017-11-06T22:07:00.504Z,5.70
2017-11-06T22:09:30.884Z,5.70
2017-11-06T22:11:59.272Z,5.70
2017-11-06T22:14:28.263Z,5.80
2017-11-06T22:16:56.684Z,5.80
2017-11-06T22:19:25.087Z,5.70
2017-11-06T22:21:53.500Z,5.70
2017-11-06T22:24:21.902Z,5.70
2017-11-06T22:26:50.298Z,5.70
2017-11-06T22:29:20.082Z,5.80
2017-11-06T22:31:48.481Z,5.80
2017-11-06T22:34:17.078Z,5.90
2017-11-06T22:36:45.470Z,5.90
2017-11-06T22:39:13.889Z,5.90
2017-11-06T22:41:43.668Z,5.90
2017-11-06T22:44:12.048Z,6.00
2017-11-06T22:46:40.420Z,6.10
2017-11-06T22:49:11.097Z,6.20
2017-11-06T22:51:39.461Z,6.20
2017-11-06T22:54:07.881Z,6.20
2017-11-06T22:56:36.239Z,6.30
2017-11-06T22:59:04.629Z,6.30
2017-11-06T23:01:33.031Z,6.40
2017-11-06T23:04:01.437Z,6.40
2017-11-06T23:06:30.562Z,6.40
2017-11-06T23:08:58.935Z,6.40
2017-11-06T23:11:27.315Z,6.50
2017-11-06T23:13:55.720Z,6.60
2017-11-06T23:16:24.995Z,6.70
2017-11-06T23:18:54.347Z,6.60
2017-11-06T23:21:23.329Z,6.60
2017-11-06T23:23:53.627Z,6.50
2017-11-06T23:26:21.996Z,6.40
2017-11-06T23:28:50.367Z,6.50
2017-11-06T23:31:18.548Z,6.40
2017-11-06T23:33:47.144Z,6.30
2017-11-06T23:36:15.500Z,6.40
2017-11-06T23:38:44.070Z,6.50
2017-11-06T23:41:12.785Z,6.60
2017-11-06T23:43:41.279Z,6.70
2017-11-06T23:46:09.483Z,6.60
2017-11-06T23:48:38.675Z,6.60
2017-11-06T23:51:06.875Z,6.60
2017-11-06T23:53:35.246Z,6.50
2017-11-06T23:56:03.440Z,6.50
2017-11-06T23:58:31.897Z,6.50
